createdAt,value
2023-12-30T00:04:04.798Z,21.02
2023-12-30T00:11:07.018Z,21.10
2023-12-30T00:18:08.533Z,21.98
2023-12-30T00:25:11.365Z,23.20
2023-12-30T00:32:12.872Z,21.08
2023-12-30T00:39:14.339Z,21.55
2023-12-30T00:46:15.936Z,21.15
2023-12-30T00:53:17.376Z,23.52
2023-12-30T01:00:19.047Z,20.60
2023-12-30T01:07:20.528Z,20.88
2023-12-30T01:14:22.012Z,22.27
2023-12-30T01:21:23.413Z,23.65
2023-12-30T01:28:24.843Z,25.35
2023-12-30T01:35:26.253Z,24.92
2023-12-30T01:42:27.663Z,26.80
2023-12-30T01:49:29.557Z,27.02
2023-12-30T01:56:31.070Z,29.00
2023-12-30T02:03:33.348Z,30.83
2023-12-30T02:10:34.909Z,32.50
2023-12-30T02:17:36.461Z,31.33
2023-12-30T02:24:38.003Z,30.15
2023-12-30T02:31:47.559Z,25.60
2023-12-30T02:38:49.294Z,24.50
2023-12-30T02:45:51.447Z,23.65
2023-12-30T02:52:52.891Z,22.65
2023-12-30T02:59:54.288Z,22.60
2023-12-30T03:06:55.806Z,22.52
2023-12-30T03:13:57.248Z,22.50
2023-12-30T03:20:58.834Z,22.88
2023-12-30T03:28:00.309Z,22.00
2023-12-30T03:35:01.795Z,23.55
2023-12-30T03:42:03.320Z,23.73
2023-12-30T03:49:04.948Z,22.95
2023-12-30T03:56:06.760Z,22.27
2023-12-30T04:03:09.661Z,23.40
2023-12-30T04:10:13.782Z,24.38
2023-12-30T04:17:15.227Z,29.17
2023-12-30T04:24:18.816Z,31.92
2023-12-30T04:31:20.250Z,23.27
2023-12-30T04:38:26.765Z,24.65
2023-12-30T04:45:28.212Z,22.45
2023-12-30T04:52:43.479Z,24.35
2023-12-30T04:59:45.574Z,26.00
2023-12-30T05:40:21.887Z,17.92
2023-12-30T05:47:23.372Z,17.60
2023-12-30T05:54:26.543Z,16.85
2023-12-30T06:01:28.074Z,15.40
2023-12-30T06:16:51.725Z,17.13
2023-12-30T06:32:14.832Z,15.98
2023-12-30T06:39:20.077Z,13.93
2023-12-30T06:46:21.779Z,17.33
2023-12-30T06:53:23.260Z,17.80
2023-12-30T07:00:24.721Z,19.30
2023-12-30T07:07:26.402Z,19.52
2023-12-30T07:14:29.767Z,22.00
2023-12-30T07:21:31.220Z,20.73
2023-12-30T07:28:33.000Z,17.60
2023-12-30T07:35:34.459Z,18.45
2023-12-30T07:42:36.471Z,20.25
2023-12-30T07:49:38.096Z,21.90
2023-12-30T07:56:39.947Z,19.25
2023-12-30T08:03:41.442Z,19.33
2023-12-30T08:10:46.010Z,18.38
2023-12-30T08:17:47.536Z,19.17
2023-12-30T08:24:51.091Z,20.38
2023-12-30T08:31:52.573Z,20.70
2023-12-30T08:38:54.059Z,24.48
2023-12-30T08:45:55.565Z,22.40
2023-12-30T08:52:57.026Z,21.83
2023-12-30T08:59:58.457Z,18.10
2023-12-30T09:06:59.894Z,18.90
2023-12-30T09:14:01.310Z,18.58
2023-12-30T09:21:02.774Z,19.67
2023-12-30T09:28:04.591Z,20.17
2023-12-30T09:35:06.808Z,22.02
2023-12-30T09:42:08.335Z,22.95
2023-12-30T09:49:16.399Z,21.77
2023-12-30T09:56:19.630Z,20.52
2023-12-30T10:03:23.010Z,20.77
2023-12-30T10:10:48.261Z,20.80
2023-12-30T10:17:50.443Z,22.65
2023-12-30T10:24:51.952Z,22.67
2023-12-30T10:32:02.052Z,23.63
2023-12-30T10:39:05.484Z,25.63
2023-12-30T10:46:13.590Z,26.90
2023-12-30T10:53:29.670Z,26.48
2023-12-30T11:00:36.646Z,24.75
2023-12-30T11:07:41.773Z,27.83
2023-12-30T11:14:43.271Z,27.17
2023-12-30T11:21:47.791Z,26.60
2023-12-30T11:28:49.419Z,27.60
2023-12-30T11:35:55.259Z,27.33
2023-12-30T11:42:57.513Z,27.98
2023-12-30T11:50:09.253Z,24.27
2023-12-30T11:57:13.778Z,23.35
2023-12-30T12:04:15.564Z,24.63
2023-12-30T12:11:17.689Z,25.63
2023-12-30T12:18:20.372Z,24.33
2023-12-30T12:25:24.085Z,26.88
2023-12-30T12:32:26.048Z,23.63
2023-12-30T12:39:27.576Z,25.08
2023-12-30T12:46:29.134Z,26.95
2023-12-30T12:53:31.606Z,27.48
2023-12-30T13:00:33.152Z,31.52
2023-12-30T13:07:36.035Z,25.17
2023-12-30T13:14:37.558Z,26.25
2023-12-30T13:21:39.007Z,26.52
2023-12-30T13:28:40.502Z,27.42
2023-12-30T13:35:44.000Z,39.53
2023-12-30T13:42:46.491Z,34.92
2023-12-30T13:50:06.201Z,31.10
2023-12-30T13:57:14.333Z,32.25
2023-12-30T14:04:20.374Z,32.85
2023-12-30T14:11:32.305Z,32.65
2023-12-30T14:18:33.865Z,33.92
2023-12-30T14:25:53.790Z,33.42
2023-12-30T14:32:56.045Z,33.28
2023-12-30T14:41:14.637Z,33.88
2023-12-30T14:48:16.376Z,34.70
2023-12-30T14:55:18.789Z,34.10
2023-12-30T15:02:20.944Z,32.50
2023-12-30T15:09:22.756Z,32.15
2023-12-30T15:16:26.545Z,30.75
2023-12-30T15:31:51.264Z,31.40
2023-12-30T15:38:52.886Z,34.10
2023-12-30T15:45:54.429Z,34.35
2023-12-30T15:52:56.135Z,35.65
2023-12-30T15:59:57.576Z,33.13
2023-12-30T16:06:59.128Z,34.78
2023-12-30T16:22:28.308Z,36.05
2023-12-30T16:29:29.760Z,39.22
2023-12-30T16:44:54.024Z,39.97
2023-12-30T16:52:20.490Z,40.45
2023-12-30T16:59:22.035Z,39.58
2023-12-30T17:06:23.860Z,32.67
2023-12-30T17:13:34.778Z,27.58
2023-12-30T17:20:41.018Z,26.73
2023-12-30T17:27:42.761Z,28.05
2023-12-30T17:34:44.211Z,27.88
2023-12-30T17:41:45.845Z,28.48
2023-12-30T17:48:47.373Z,29.48
2023-12-30T17:55:49.360Z,26.98
2023-12-30T18:02:51.473Z,27.40
2023-12-30T18:09:52.987Z,31.88
2023-12-30T18:16:54.395Z,30.10
2023-12-30T18:24:14.992Z,28.30
2023-12-30T18:31:16.511Z,31.35
2023-12-30T18:38:20.371Z,29.40
2023-12-30T18:45:21.800Z,28.55
2023-12-30T19:00:45.720Z,34.63
2023-12-30T19:07:47.637Z,37.97
2023-12-30T19:14:49.195Z,37.03
2023-12-30T19:21:54.708Z,39.75
2023-12-30T19:28:56.133Z,39.10
2023-12-30T19:44:20.306Z,38.20
2023-12-30T19:51:22.441Z,40.95
2023-12-30T20:06:50.196Z,35.22
2023-12-30T20:13:54.694Z,32.25
2023-12-30T20:20:58.565Z,35.90
2023-12-30T20:28:00.660Z,37.35
2023-12-30T20:35:02.356Z,37.42
2023-12-30T20:42:05.165Z,37.67
2023-12-30T20:49:09.562Z,36.55
2023-12-30T21:04:55.850Z,35.53
2023-12-30T21:11:57.631Z,35.75
2023-12-30T21:19:00.822Z,35.83
2023-12-30T21:26:04.080Z,37.45
2023-12-30T21:33:11.723Z,38.17
2023-12-30T21:40:14.840Z,39.90
2023-12-30T21:47:16.396Z,39.17
2023-12-30T21:54:17.942Z,43.17
2023-12-30T22:01:19.550Z,44.55
2023-12-30T22:08:26.147Z,47.70
2023-12-30T22:15:28.578Z,48.67
2023-12-30T22:22:30.047Z,51.95
2023-12-30T22:29:31.569Z,56.45
2023-12-30T22:44:55.512Z,64.60
2023-12-30T22:51:56.960Z,68.65
2023-12-30T22:58:58.391Z,65.38
2023-12-30T23:06:00.009Z,60.10
2023-12-30T23:13:20.106Z,55.30
2023-12-30T23:20:22.466Z,47.13
2023-12-30T23:27:25.183Z,42.58
2023-12-30T23:34:38.812Z,40.50
2023-12-30T23:41:46.856Z,40.20
2023-12-30T23:48:48.376Z,40.15
2023-12-30T23:55:50.859Z,42.45
